createdAt,value
2018-06-14T00:00:53.507Z,82.99
2018-06-14T00:03:22.674Z,83.67
2018-06-14T00:05:51.947Z,84.18
2018-06-14T00:08:21.140Z,84.25
2018-06-14T00:10:50.338Z,84.68
2018-06-14T00:13:19.488Z,84.58
2018-06-14T00:15:48.625Z,85.02
2018-06-14T00:18:17.793Z,85.12
2018-06-14T00:20:46.935Z,85.44
2018-06-14T00:23:16.079Z,85.44
2018-06-14T00:25:45.270Z,85.68
2018-06-14T00:28:14.386Z,85.87
2018-06-14T00:30:43.551Z,85.79
2018-06-14T00:33:12.771Z,85.59
2018-06-14T00:35:42.015Z,85.57
2018-06-14T00:38:11.123Z,86.00
2018-06-14T00:40:40.324Z,86.27
2018-06-14T00:43:09.524Z,86.44
2018-06-14T00:45:38.690Z,86.58
2018-06-14T00:48:07.860Z,86.63
2018-06-14T00:50:37.162Z,86.95
2018-06-14T00:53:06.276Z,86.63
2018-06-14T00:55:35.515Z,86.81
2018-06-14T00:58:04.646Z,86.44
2018-06-14T01:00:33.786Z,86.46
2018-06-14T01:03:02.892Z,86.84
2018-06-14T01:05:32.052Z,86.95
2018-06-14T01:08:01.122Z,86.74
2018-06-14T01:10:30.303Z,86.85
2018-06-14T01:12:59.456Z,86.84
2018-06-14T01:15:28.732Z,86.85
2018-06-14T01:17:57.902Z,86.53
2018-06-14T01:20:27.064Z,86.65
2018-06-14T01:22:56.217Z,86.81
2018-06-14T01:25:25.389Z,86.89
2018-06-14T01:27:54.687Z,86.77
2018-06-14T01:30:23.994Z,87.20
2018-06-14T01:32:53.180Z,87.28
2018-06-14T01:35:22.427Z,87.16
2018-06-14T01:38:02.853Z,87.07
2018-06-14T01:40:32.015Z,87.29
2018-06-14T01:43:01.234Z,87.66
2018-06-14T01:45:30.416Z,87.70
2018-06-14T01:47:59.706Z,88.09
2018-06-14T01:50:28.863Z,88.10
2018-06-14T01:52:58.097Z,88.02
2018-06-14T01:55:30.942Z,88.11
2018-06-14T01:58:00.114Z,88.24
2018-06-14T02:00:29.511Z,87.91
2018-06-14T02:02:58.739Z,88.07
2018-06-14T02:05:28.297Z,88.14
2018-06-14T02:07:57.458Z,87.96
2018-06-14T02:10:26.990Z,88.08
2018-06-14T02:12:56.083Z,88.26
2018-06-14T02:15:27.704Z,88.07
2018-06-14T02:17:57.352Z,87.68
2018-06-14T02:20:26.595Z,88.10
2018-06-14T02:22:55.719Z,88.16
2018-06-14T02:25:25.133Z,87.98
2018-06-14T02:27:54.309Z,87.69
2018-06-14T02:30:23.511Z,87.65
2018-06-14T02:32:52.796Z,87.60
2018-06-14T02:35:22.036Z,87.50
2018-06-14T02:37:51.191Z,88.02
2018-06-14T02:40:20.337Z,88.18
2018-06-14T02:42:50.194Z,88.27
2018-06-14T02:45:19.381Z,88.42
2018-06-14T02:47:48.597Z,88.89
2018-06-14T02:50:17.742Z,88.94
2018-06-14T02:52:46.971Z,89.40
2018-06-14T02:55:16.150Z,89.61
2018-06-14T02:57:45.623Z,89.08
2018-06-14T03:00:15.090Z,89.39
2018-06-14T03:02:44.800Z,89.50
2018-06-14T03:05:14.066Z,89.54
2018-06-14T03:07:43.336Z,90.25
2018-06-14T03:10:12.569Z,89.75
2018-06-14T03:12:41.816Z,89.96
2018-06-14T03:15:10.989Z,89.88
2018-06-14T03:17:40.120Z,90.78
2018-06-14T03:20:09.453Z,90.27
2018-06-14T03:22:38.696Z,90.31
2018-06-14T03:25:07.896Z,90.38
2018-06-14T03:27:55.033Z,90.53
2018-06-14T03:30:26.989Z,90.57
2018-06-14T03:32:56.271Z,90.84
2018-06-14T03:35:41.280Z,90.65
2018-06-14T03:38:13.483Z,90.77
2018-06-14T03:40:42.733Z,90.62
2018-06-14T03:43:11.933Z,90.57
2018-06-14T03:45:41.056Z,90.53
2018-06-14T03:48:10.212Z,90.68
2018-06-14T03:50:39.384Z,90.66
2018-06-14T03:53:08.598Z,90.62
2018-06-14T03:55:38.213Z,90.72
2018-06-14T03:58:07.333Z,90.65
2018-06-14T04:00:36.515Z,90.74
2018-06-14T04:03:05.782Z,90.90
2018-06-14T04:05:34.987Z,90.97
2018-06-14T04:08:04.151Z,91.38
2018-06-14T04:10:33.477Z,91.48
2018-06-14T04:13:02.629Z,91.88
2018-06-14T04:15:31.768Z,91.56
2018-06-14T04:18:03.713Z,91.98
2018-06-14T04:20:34.454Z,91.95
2018-06-14T04:23:03.662Z,91.70
2018-06-14T04:25:32.856Z,91.43
2018-06-14T04:28:02.214Z,91.76
2018-06-14T04:30:31.368Z,91.48
2018-06-14T04:33:00.568Z,91.67
2018-06-14T04:35:29.937Z,91.33
2018-06-14T04:37:59.151Z,91.32
2018-06-14T04:40:28.369Z,91.49
2018-06-14T04:42:57.487Z,91.27
2018-06-14T04:45:26.661Z,91.13
2018-06-14T04:47:55.824Z,90.80
2018-06-14T04:50:24.961Z,90.81
2018-06-14T04:52:54.242Z,90.80
2018-06-14T04:55:23.461Z,90.78
2018-06-14T04:57:52.628Z,90.50
2018-06-14T05:00:21.964Z,90.17
2018-06-14T05:02:51.122Z,89.83
2018-06-14T05:05:20.376Z,89.64
2018-06-14T05:07:49.507Z,89.52
2018-06-14T05:10:18.663Z,89.36
2018-06-14T05:12:47.842Z,89.08
2018-06-14T05:15:17.080Z,89.01
2018-06-14T05:17:46.282Z,88.83
2018-06-14T05:20:15.423Z,88.27
2018-06-14T05:22:44.733Z,87.72
2018-06-14T05:25:14.081Z,87.31
2018-06-14T05:27:43.188Z,86.93
2018-06-14T05:30:12.359Z,86.55
2018-06-14T05:32:41.541Z,86.23
2018-06-14T05:35:10.768Z,86.09
2018-06-14T05:37:39.893Z,86.07
2018-06-14T05:40:09.085Z,86.21
2018-06-14T05:42:38.188Z,85.73
2018-06-14T05:45:07.384Z,85.62
2018-06-14T05:47:36.655Z,85.62
2018-06-14T05:50:05.812Z,85.32
2018-06-14T05:52:35.181Z,85.32
2018-06-14T05:55:04.496Z,85.02
2018-06-14T05:57:33.846Z,84.33
2018-06-14T06:00:03.413Z,84.26
2018-06-14T06:02:32.719Z,84.00
2018-06-14T06:05:01.966Z,83.60
2018-06-14T06:07:31.125Z,83.04
2018-06-14T06:10:00.370Z,83.22
2018-06-14T06:12:29.532Z,83.14
2018-06-14T06:14:58.759Z,83.12
2018-06-14T06:17:27.874Z,82.77
2018-06-14T06:19:57.055Z,82.58
2018-06-14T06:22:26.571Z,82.44
2018-06-14T06:24:55.967Z,82.02
2018-06-14T06:27:25.116Z,82.10
2018-06-14T06:29:54.374Z,80.83
2018-06-14T06:32:23.984Z,79.97
2018-06-14T06:34:53.136Z,80.02
2018-06-14T06:37:22.343Z,79.30
2018-06-14T06:39:51.531Z,78.80
2018-06-14T06:42:20.688Z,78.24
2018-06-14T06:44:49.908Z,78.43
2018-06-14T06:47:19.237Z,78.10
2018-06-14T06:49:48.566Z,77.80
2018-06-14T06:52:17.690Z,77.03
2018-06-14T06:54:46.901Z,76.11
2018-06-14T06:57:16.115Z,76.07
2018-06-14T06:59:45.275Z,76.00
2018-06-14T07:02:14.542Z,76.09
2018-06-14T07:04:43.703Z,76.13
2018-06-14T07:07:12.845Z,75.80
2018-06-14T07:09:41.940Z,76.42
2018-06-14T07:12:11.230Z,74.73
2018-06-14T07:14:41.340Z,74.61
2018-06-14T07:17:10.561Z,73.07
2018-06-14T07:19:39.769Z,73.76
2018-06-14T07:22:09.375Z,73.62
2018-06-14T07:24:38.533Z,73.68
2018-06-14T07:27:07.784Z,73.19
2018-06-14T07:29:37.385Z,70.71
2018-06-14T07:32:06.928Z,69.15
2018-06-14T07:34:36.092Z,69.59
2018-06-14T07:37:05.240Z,69.37
2018-06-14T07:39:35.158Z,69.42
2018-06-14T07:42:04.294Z,68.97
2018-06-14T07:44:33.544Z,69.58
2018-06-14T07:47:02.708Z,70.38
2018-06-14T07:49:31.874Z,70.95
2018-06-14T07:52:01.045Z,71.58
2018-06-14T07:54:30.161Z,70.48
2018-06-14T07:56:59.329Z,68.66
2018-06-14T07:59:28.478Z,66.36
2018-06-14T08:01:57.652Z,65.93
2018-06-14T08:04:26.804Z,65.65
2018-06-14T08:06:56.090Z,65.97
2018-06-14T08:09:25.299Z,64.97
2018-06-14T08:11:55.077Z,66.12
2018-06-14T08:14:24.201Z,65.31
2018-06-14T08:16:53.387Z,64.24
2018-06-14T08:19:22.509Z,65.04
2018-06-14T08:21:51.640Z,64.94
2018-06-14T08:24:20.839Z,63.63
2018-06-14T08:26:50.023Z,62.52
2018-06-14T08:29:19.229Z,61.71
2018-06-14T08:31:48.490Z,59.71
2018-06-14T08:34:18.472Z,59.68
2018-06-14T08:36:47.618Z,60.06
2018-06-14T08:39:16.725Z,59.57
2018-06-14T08:41:46.748Z,56.44
2018-06-14T08:44:15.885Z,58.63
2018-06-14T08:46:45.044Z,55.17
2018-06-14T08:49:14.863Z,53.04
2018-06-14T08:51:43.988Z,52.49
2018-06-14T08:54:13.208Z,52.89
2018-06-14T08:56:42.456Z,53.92
2018-06-14T08:59:11.608Z,50.80
2018-06-14T09:01:41.597Z,48.79
2018-06-14T09:04:10.866Z,49.93
2018-06-14T09:06:40.016Z,50.18
2018-06-14T09:09:10.312Z,50.49
2018-06-14T09:11:40.376Z,51.40
2018-06-14T09:14:10.120Z,53.04
2018-06-14T09:16:40.004Z,53.13
2018-06-14T09:19:09.147Z,53.39
2018-06-14T09:21:38.392Z,51.49
2018-06-14T09:24:07.521Z,50.42
2018-06-14T09:26:36.927Z,50.66
2018-06-14T09:29:06.200Z,49.99
2018-06-14T09:31:35.490Z,49.69
2018-06-14T09:34:04.802Z,49.54
2018-06-14T09:36:34.627Z,48.09
2018-06-14T09:39:04.991Z,47.78
2018-06-14T09:41:34.162Z,47.30
2018-06-14T09:44:03.302Z,47.67
2018-06-14T09:46:32.464Z,47.33
2018-06-14T09:49:06.864Z,48.31
2018-06-14T09:51:36.064Z,48.34
2018-06-14T09:54:05.344Z,49.11
2018-06-14T09:56:34.536Z,48.48
2018-06-14T09:59:03.772Z,49.13
2018-06-14T10:01:33.021Z,48.39
2018-06-14T10:04:02.151Z,47.93
2018-06-14T10:06:31.329Z,46.46
2018-06-14T10:09:00.475Z,45.74
2018-06-14T10:11:29.752Z,47.05
2018-06-14T10:13:58.919Z,46.10
2018-06-14T10:16:28.864Z,44.52
2018-06-14T10:18:58.064Z,43.71
2018-06-14T10:21:27.185Z,44.41
2018-06-14T10:23:56.450Z,44.04
2018-06-14T10:26:25.667Z,43.06
2018-06-14T10:28:54.866Z,44.21
2018-06-14T10:31:24.025Z,42.73
2018-06-14T10:33:53.184Z,41.93
2018-06-14T10:36:22.397Z,41.87
2018-06-14T10:38:51.672Z,41.44
2018-06-14T10:41:20.812Z,41.91
2018-06-14T10:43:50.048Z,42.21
2018-06-14T10:46:19.282Z,42.30
2018-06-14T10:48:48.448Z,40.15
2018-06-14T10:51:17.613Z,40.01
2018-06-14T10:53:46.771Z,39.91
2018-06-14T10:56:16.072Z,41.14
2018-06-14T10:58:45.253Z,41.37
2018-06-14T11:01:14.531Z,40.40
2018-06-14T11:03:44.048Z,40.19
2018-06-14T11:06:13.193Z,40.75
2018-06-14T11:08:42.416Z,40.18
2018-06-14T11:11:11.614Z,40.04
2018-06-14T11:13:40.690Z,39.12
2018-06-14T11:16:09.866Z,39.71
2018-06-14T11:18:39.156Z,39.73
2018-06-14T11:21:08.293Z,39.77
2018-06-14T11:23:37.422Z,39.56
2018-06-14T11:26:06.614Z,39.03
2018-06-14T11:28:35.739Z,39.12
2018-06-14T11:31:04.929Z,40.23
2018-06-14T11:33:34.100Z,39.81
2018-06-14T11:36:03.275Z,38.96
2018-06-14T11:38:32.373Z,39.00
2018-06-14T11:41:01.521Z,39.18
2018-06-14T11:43:30.651Z,39.39
2018-06-14T11:45:59.873Z,39.19
2018-06-14T11:48:29.059Z,39.29
2018-06-14T11:50:58.262Z,38.49
2018-06-14T11:53:27.450Z,38.10
2018-06-14T11:55:56.651Z,38.64
2018-06-14T11:58:25.819Z,37.56
2018-06-14T12:00:54.971Z,37.59
2018-06-14T12:03:24.144Z,37.30
2018-06-14T12:05:53.271Z,37.33
2018-06-14T12:08:22.523Z,37.49
2018-06-14T12:10:51.680Z,38.39
2018-06-14T12:13:20.985Z,38.02
2018-06-14T12:15:50.128Z,38.76
2018-06-14T12:18:19.422Z,38.62
2018-06-14T12:20:48.556Z,39.41
2018-06-14T12:23:17.706Z,38.33
2018-06-14T12:25:46.861Z,37.83
2018-06-14T12:28:16.040Z,37.47
2018-06-14T12:30:45.289Z,36.27
2018-06-14T12:33:14.415Z,36.92
2018-06-14T12:35:43.574Z,37.50
2018-06-14T12:38:12.747Z,37.01
2018-06-14T12:40:41.889Z,37.39
2018-06-14T12:43:11.142Z,38.17
2018-06-14T12:45:40.265Z,36.17
2018-06-14T12:48:09.479Z,36.42
2018-06-14T12:50:38.629Z,36.36
2018-06-14T12:53:07.723Z,36.44
2018-06-14T12:55:36.983Z,36.14
2018-06-14T12:58:06.099Z,36.53
2018-06-14T13:00:35.266Z,36.88
2018-06-14T13:03:04.636Z,38.49
2018-06-14T13:05:33.880Z,37.28
2018-06-14T13:08:03.076Z,37.42
2018-06-14T13:10:32.278Z,37.37
2018-06-14T13:13:01.443Z,37.22
2018-06-14T13:15:30.564Z,37.28
2018-06-14T13:17:59.740Z,37.54
2018-06-14T13:20:28.855Z,37.33
2018-06-14T13:22:58.052Z,38.45
2018-06-14T13:25:27.216Z,37.47
2018-06-14T13:27:56.472Z,37.61
2018-06-14T13:30:25.669Z,37.87
2018-06-14T13:32:54.821Z,38.23
2018-06-14T13:35:24.073Z,37.90
2018-06-14T13:40:21.575Z,39.10
2018-06-14T13:42:50.935Z,39.58
2018-06-14T13:45:20.123Z,39.72
2018-06-14T13:47:49.339Z,40.22
2018-06-14T13:50:18.472Z,40.05
2018-06-14T13:52:47.644Z,40.03
2018-06-14T13:55:16.767Z,40.19
2018-06-14T13:57:45.967Z,40.90
2018-06-14T14:00:15.044Z,41.78
2018-06-14T14:02:44.153Z,41.84
2018-06-14T14:05:13.424Z,42.16
2018-06-14T14:07:42.521Z,42.14
2018-06-14T14:10:11.734Z,42.73
2018-06-14T14:12:40.849Z,43.54
2018-06-14T14:15:10.037Z,43.46
2018-06-14T14:17:39.162Z,43.78
2018-06-14T14:20:08.695Z,43.57
2018-06-14T14:22:37.832Z,44.06
2018-06-14T14:25:07.063Z,44.21
2018-06-14T14:27:36.223Z,44.89
2018-06-14T14:30:05.420Z,45.04
2018-06-14T14:32:34.693Z,48.21
2018-06-14T14:35:04.472Z,46.98
2018-06-14T14:37:34.005Z,48.63
2018-06-14T14:40:03.215Z,49.95
2018-06-14T14:42:32.334Z,50.92
2018-06-14T14:45:01.574Z,52.21
2018-06-14T14:47:30.770Z,55.16
2018-06-14T14:50:00.065Z,56.09
2018-06-14T14:52:29.470Z,58.47
2018-06-14T14:54:58.670Z,59.60
2018-06-14T14:57:28.974Z,60.53
2018-06-14T14:59:58.191Z,62.98
2018-06-14T15:02:27.394Z,61.51
2018-06-14T15:04:56.520Z,62.94
2018-06-14T15:07:25.684Z,63.76
2018-06-14T15:09:54.825Z,64.63
2018-06-14T15:12:24.068Z,65.83
2018-06-14T15:14:53.193Z,68.99
2018-06-14T15:17:22.319Z,68.75
2018-06-14T15:19:51.543Z,72.29
2018-06-14T15:22:20.698Z,72.87
2018-06-14T15:24:49.853Z,72.50
2018-06-14T15:27:19.003Z,74.32
2018-06-14T15:29:48.253Z,72.91
2018-06-14T15:32:17.516Z,72.08
2018-06-14T15:34:46.725Z,73.63
2018-06-14T15:37:15.906Z,71.80
2018-06-14T15:39:45.071Z,74.41
2018-06-14T15:42:14.461Z,73.84
2018-06-14T15:44:43.649Z,74.09
2018-06-14T15:47:12.787Z,75.45
2018-06-14T15:49:41.921Z,75.29
2018-06-14T15:52:11.079Z,74.21
2018-06-14T15:54:40.353Z,77.12
2018-06-14T15:57:09.528Z,77.35
2018-06-14T15:59:38.707Z,78.90
2018-06-14T16:02:07.864Z,78.95
2018-06-14T16:04:36.996Z,80.70
2018-06-14T16:07:06.206Z,79.31
2018-06-14T16:09:35.363Z,81.88
2018-06-14T16:12:04.570Z,82.67
2018-06-14T16:14:33.728Z,84.02
2018-06-14T16:17:02.962Z,83.12
2018-06-14T16:19:32.128Z,86.75
2018-06-14T16:22:02.310Z,89.21
2018-06-14T16:24:32.016Z,90.22
2018-06-14T16:27:01.197Z,91.42
2018-06-14T16:29:30.340Z,90.53
2018-06-14T16:31:59.597Z,91.75
2018-06-14T16:34:28.801Z,92.72
2018-06-14T16:36:57.984Z,91.24
2018-06-14T16:39:27.277Z,93.09
2018-06-14T16:41:56.381Z,90.22
2018-06-14T16:44:25.718Z,92.69
2018-06-14T16:46:54.894Z,90.51
2018-06-14T16:49:24.063Z,92.22
2018-06-14T16:51:53.264Z,92.88
2018-06-14T16:54:22.429Z,92.29
2018-06-14T16:56:51.704Z,91.79
2018-06-14T16:59:20.944Z,90.41
2018-06-14T17:01:50.206Z,90.60
2018-06-14T17:04:19.506Z,90.46
2018-06-14T17:06:48.710Z,90.84
2018-06-14T17:09:17.963Z,89.95
2018-06-14T17:11:47.065Z,87.95
2018-06-14T17:14:16.217Z,88.64
2018-06-14T17:16:45.576Z,89.24
2018-06-14T17:19:14.882Z,88.79
2018-06-14T17:21:44.154Z,89.38
2018-06-14T17:24:13.497Z,88.60
2018-06-14T17:26:42.788Z,89.02
2018-06-14T17:29:12.091Z,89.93
2018-06-14T17:31:41.431Z,89.97
2018-06-14T17:34:11.382Z,90.50
2018-06-14T17:36:40.606Z,90.44
2018-06-14T17:39:09.923Z,88.10
2018-06-14T17:41:39.185Z,87.34
2018-06-14T17:44:08.448Z,86.86
2018-06-14T17:46:37.792Z,87.45
2018-06-14T17:49:07.040Z,86.49
2018-06-14T17:51:36.304Z,88.98
2018-06-14T17:54:05.417Z,88.62
2018-06-14T17:56:34.577Z,87.75
2018-06-14T17:59:03.801Z,89.66
2018-06-14T18:01:32.984Z,88.48
2018-06-14T18:04:02.301Z,87.99
2018-06-14T18:06:31.506Z,85.44
2018-06-14T18:09:00.722Z,85.66
2018-06-14T18:11:29.890Z,85.97
2018-06-14T18:13:59.111Z,84.55
2018-06-14T18:16:28.282Z,84.75
2018-06-14T18:18:57.452Z,84.04
2018-06-14T18:21:26.693Z,83.40
2018-06-14T18:23:55.876Z,85.07
2018-06-14T18:26:25.425Z,85.22
2018-06-14T18:28:54.644Z,85.75
2018-06-14T18:31:23.846Z,84.80
2018-06-14T18:33:53.049Z,83.79
2018-06-14T18:36:22.269Z,84.91
2018-06-14T18:38:51.402Z,84.58
2018-06-14T18:41:20.662Z,84.19
2018-06-14T18:43:49.869Z,84.57
2018-06-14T18:46:19.064Z,83.72
2018-06-14T18:48:48.195Z,84.48
2018-06-14T18:51:17.969Z,84.65
2018-06-14T18:53:47.175Z,84.31
2018-06-14T18:56:16.332Z,84.36
2018-06-14T18:58:45.460Z,83.79
2018-06-14T19:01:14.590Z,83.97
2018-06-14T19:03:43.906Z,84.01
2018-06-14T19:06:13.070Z,84.23
2018-06-14T19:08:42.207Z,83.78
2018-06-14T19:11:11.342Z,83.55
2018-06-14T19:13:40.498Z,84.69
2018-06-14T19:16:09.594Z,85.01
2018-06-14T19:18:38.768Z,84.71
2018-06-14T19:21:08.032Z,84.70
2018-06-14T19:23:37.421Z,85.33
2018-06-14T19:26:06.650Z,85.18
2018-06-14T19:28:35.830Z,85.40
2018-06-14T19:31:05.386Z,84.98
2018-06-14T19:33:34.525Z,86.48
2018-06-14T19:36:03.808Z,86.13
2018-06-14T19:38:33.092Z,85.85
2018-06-14T19:41:02.437Z,85.52
2018-06-14T19:43:31.639Z,86.99
2018-06-14T19:46:00.904Z,86.65
2018-06-14T19:48:30.208Z,86.19
2018-06-14T19:50:59.430Z,86.85
2018-06-14T19:53:28.611Z,86.40
2018-06-14T19:55:57.843Z,86.87
2018-06-14T19:58:26.990Z,86.83
2018-06-14T20:00:56.237Z,87.07
2018-06-14T20:03:25.397Z,86.89
2018-06-14T20:05:54.554Z,88.78
2018-06-14T20:08:23.759Z,88.29
2018-06-14T20:10:52.932Z,87.17
2018-06-14T20:13:22.079Z,87.49
2018-06-14T20:15:51.297Z,88.11
2018-06-14T20:18:20.440Z,88.02
2018-06-14T20:20:49.668Z,88.00
2018-06-14T20:23:18.850Z,87.48
2018-06-14T20:25:48.029Z,87.45
2018-06-14T20:28:17.276Z,89.51
2018-06-14T20:30:46.484Z,88.35
2018-06-14T20:33:22.262Z,88.11
2018-06-14T20:35:51.941Z,87.36
2018-06-14T20:38:21.479Z,87.25
2018-06-14T20:40:50.652Z,86.41
2018-06-14T20:43:19.751Z,86.99
2018-06-14T20:45:49.215Z,86.32
2018-06-14T20:48:19.033Z,85.64
2018-06-14T20:50:48.260Z,86.31
2018-06-14T20:53:17.361Z,86.08
2018-06-14T20:55:46.501Z,87.75
2018-06-14T20:58:15.735Z,87.23
2018-06-14T21:00:44.890Z,88.89
2018-06-14T21:03:14.066Z,89.54
2018-06-14T21:05:43.269Z,90.96
2018-06-14T21:08:12.453Z,92.04
2018-06-14T21:10:41.716Z,93.39
2018-06-14T21:13:17.242Z,93.38
2018-06-14T21:15:46.815Z,93.34
2018-06-14T21:18:16.004Z,94.07
2018-06-14T21:20:45.167Z,94.00
2018-06-14T21:23:14.411Z,93.86
2018-06-14T21:25:43.585Z,93.26
2018-06-14T21:28:12.772Z,94.34
2018-06-14T21:30:41.900Z,93.96
2018-06-14T21:33:11.221Z,93.41
2018-06-14T21:35:40.526Z,94.10
2018-06-14T21:38:09.720Z,92.65
2018-06-14T21:40:38.828Z,92.84
2018-06-14T21:43:08.102Z,92.87
2018-06-14T21:45:37.284Z,93.10
2018-06-14T21:48:06.423Z,93.56
2018-06-14T21:50:35.691Z,93.39
2018-06-14T21:53:04.952Z,93.81
2018-06-14T21:55:34.091Z,93.95
2018-06-14T21:58:03.349Z,94.20
2018-06-14T22:00:32.614Z,93.81
2018-06-14T22:03:07.158Z,93.83
2018-06-14T22:05:36.372Z,94.21
2018-06-14T22:08:05.582Z,94.31
2018-06-14T22:10:34.718Z,94.28
2018-06-14T22:13:03.908Z,94.72
2018-06-14T22:15:33.129Z,94.23
2018-06-14T22:18:02.354Z,94.49
2018-06-14T22:20:31.599Z,94.29
2018-06-14T22:23:00.805Z,94.04
2018-06-14T22:25:29.972Z,93.90
2018-06-14T22:27:59.169Z,93.25
2018-06-14T22:30:28.366Z,93.75
2018-06-14T22:33:08.749Z,93.42
2018-06-14T22:35:38.561Z,93.35
2018-06-14T22:38:07.833Z,93.23
2018-06-14T22:40:37.400Z,93.57
2018-06-14T22:43:06.612Z,93.60
2018-06-14T22:45:35.833Z,92.97
2018-06-14T22:48:05.110Z,93.45
2018-06-14T22:50:45.421Z,93.42
2018-06-14T22:53:14.595Z,92.90
2018-06-14T22:55:43.789Z,93.20
2018-06-14T22:58:12.986Z,92.94
2018-06-14T23:01:37.640Z,93.36
2018-06-14T23:04:07.946Z,93.47
2018-06-14T23:06:37.142Z,93.62
2018-06-14T23:10:16.499Z,94.31
2018-06-14T23:12:45.907Z,94.18
2018-06-14T23:15:16.115Z,94.22
2018-06-14T23:17:46.249Z,94.12
2018-06-14T23:20:16.662Z,94.01
2018-06-14T23:22:47.096Z,94.36
2018-06-14T23:25:17.020Z,94.60
2018-06-14T23:27:46.233Z,94.31
2018-06-14T23:30:15.532Z,95.22
2018-06-14T23:32:44.909Z,95.16
2018-06-14T23:35:14.174Z,95.42
2018-06-14T23:37:43.542Z,95.28
2018-06-14T23:40:12.867Z,96.44
2018-06-14T23:42:42.036Z,95.45
2018-06-14T23:45:11.167Z,95.80
2018-06-14T23:47:40.388Z,95.73
2018-06-14T23:50:09.558Z,95.77
2018-06-14T23:52:41.473Z,96.07
2018-06-14T23:55:11.196Z,96.02
2018-06-14T23:57:40.397Z,95.98
